sensor_id;sensor_type;location;lat;lon;timestamp;P1;durP1;ratioP1;P2;durP2;ratioP2
61397;SDS011;47267;48.130;-2.040;2023-03-23T00:01:08;5.95;;;1.52;;
61397;SDS011;47267;48.130;-2.040;2023-03-23T00:03:36;6.60;;;2.00;;
61397;SDS011;47267;48.130;-2.040;2023-03-23T00:06:02;3.92;;;1.33;;
61397;SDS011;47267;48.130;-2.040;2023-03-23T00:08:30;6.78;;;1.83;;
61397;SDS011;47267;48.130;-2.040;2023-03-23T00:10:56;6.90;;;1.67;;
61397;SDS011;47267;48.130;-2.040;2023-03-23T00:13:25;5.70;;;1.77;;
61397;SDS011;47267;48.130;-2.040;2023-03-23T00:15:52;10.23;;;1.95;;
61397;SDS011;47267;48.130;-2.040;2023-03-23T00:18:19;6.20;;;1.80;;
61397;SDS011;47267;48.130;-2.040;2023-03-23T00:20:49;6.90;;;2.00;;
61397;SDS011;47267;48.130;-2.040;2023-03-23T00:23:16;7.80;;;2.10;;
61397;SDS011;47267;48.130;-2.040;2023-03-23T00:25:47;7.60;;;2.17;;
61397;SDS011;47267;48.130;-2.040;2023-03-23T00:28:22;6.93;;;1.80;;
61397;SDS011;47267;48.130;-2.040;2023-03-23T00:31:03;8.90;;;1.85;;
61397;SDS011;47267;48.130;-2.040;2023-03-23T00:33:31;7.18;;;1.67;;
61397;SDS011;47267;48.130;-2.040;2023-03-23T00:36:02;7.03;;;1.85;;
61397;SDS011;47267;48.130;-2.040;2023-03-23T00:38:29;7.75;;;2.08;;
61397;SDS011;47267;48.130;-2.040;2023-03-23T00:40:55;7.85;;;1.70;;
61397;SDS011;47267;48.130;-2.040;2023-03-23T00:43:22;5.43;;;1.85;;
61397;SDS011;47267;48.130;-2.040;2023-03-23T00:45:53;6.68;;;2.00;;
61397;SDS011;47267;48.130;-2.040;2023-03-23T00:48:20;6.80;;;1.90;;
61397;SDS011;47267;48.130;-2.040;2023-03-23T00:50:47;7.15;;;1.63;;
61397;SDS011;47267;48.130;-2.040;2023-03-23T00:53:14;6.45;;;1.73;;
61397;SDS011;47267;48.130;-2.040;2023-03-23T00:55:41;8.48;;;2.00;;
61397;SDS011;47267;48.130;-2.040;2023-03-23T00:58:07;6.85;;;1.83;;
61397;SDS011;47267;48.130;-2.040;2023-03-23T01:00:34;7.82;;;1.88;;
61397;SDS011;47267;48.130;-2.040;2023-03-23T01:03:00;6.63;;;1.65;;
61397;SDS011;47267;48.130;-2.040;2023-03-23T01:05:26;9.10;;;2.13;;
61397;SDS011;47267;48.130;-2.040;2023-03-23T01:08:00;8.88;;;2.13;;
61397;SDS011;47267;48.130;-2.040;2023-03-23T01:10:26;7.97;;;1.90;;
61397;SDS011;47267;48.130;-2.040;2023-03-23T01:12:52;7.45;;;1.70;;
61397;SDS011;47267;48.130;-2.040;2023-03-23T01:15:19;6.22;;;1.65;;
61397;SDS011;47267;48.130;-2.040;2023-03-23T01:17:45;6.80;;;1.80;;
61397;SDS011;47267;48.130;-2.040;2023-03-23T01:20:13;6.43;;;2.05;;
61397;SDS011;47267;48.130;-2.040;2023-03-23T01:22:40;6.03;;;1.77;;
61397;SDS011;47267;48.130;-2.040;2023-03-23T01:25:06;4.78;;;1.60;;
61397;SDS011;47267;48.130;-2.040;2023-03-23T01:27:33;8.13;;;1.85;;
61397;SDS011;47267;48.130;-2.040;2023-03-23T01:29:59;8.13;;;2.10;;
61397;SDS011;47267;48.130;-2.040;2023-03-23T01:32:25;8.77;;;2.20;;
61397;SDS011;47267;48.130;-2.040;2023-03-23T01:34:51;7.45;;;1.70;;
61397;SDS011;47267;48.130;-2.040;2023-03-23T01:37:17;5.00;;;1.75;;
61397;SDS011;47267;48.130;-2.040;2023-03-23T01:39:51;6.57;;;1.73;;
61397;SDS011;47267;48.130;-2.040;2023-03-23T01:42:18;4.63;;;1.65;;
61397;SDS011;47267;48.130;-2.040;2023-03-23T01:48:17;7.28;;;1.50;;
61397;SDS011;47267;48.130;-2.040;2023-03-23T01:53:16;5.50;;;1.50;;
61397;SDS011;47267;48.130;-2.040;2023-03-23T01:55:43;4.97;;;1.50;;
61397;SDS011;47267;48.130;-2.040;2023-03-23T01:58:13;8.60;;;2.10;;
61397;SDS011;47267;48.130;-2.040;2023-03-23T02:00:41;10.52;;;2.10;;
61397;SDS011;47267;48.130;-2.040;2023-03-23T02:03:07;6.85;;;1.55;;
61397;SDS011;47267;48.130;-2.040;2023-03-23T02:05:39;4.88;;;1.60;;
61397;SDS011;47267;48.130;-2.040;2023-03-23T02:10:33;7.78;;;1.80;;
61397;SDS011;47267;48.130;-2.040;2023-03-23T02:13:00;4.88;;;1.60;;
61397;SDS011;47267;48.130;-2.040;2023-03-23T02:15:30;7.93;;;2.30;;
61397;SDS011;47267;48.130;-2.040;2023-03-23T02:24:02;9.27;;;2.17;;
61397;SDS011;47267;48.130;-2.040;2023-03-23T02:27:01;5.63;;;1.83;;
61397;SDS011;47267;48.130;-2.040;2023-03-23T02:32:45;7.78;;;1.73;;
61397;SDS011;47267;48.130;-2.040;2023-03-23T02:35:22;6.60;;;1.90;;
61397;SDS011;47267;48.130;-2.040;2023-03-23T02:37:57;4.55;;;1.20;;
61397;SDS011;47267;48.130;-2.040;2023-03-23T02:40:32;5.22;;;1.60;;
61397;SDS011;47267;48.130;-2.040;2023-03-23T02:43:02;8.18;;;2.03;;
61397;SDS011;47267;48.130;-2.040;2023-03-23T02:45:31;4.22;;;1.38;;
61397;SDS011;47267;48.130;-2.040;2023-03-23T02:47:59;6.53;;;1.63;;
61397;SDS011;47267;48.130;-2.040;2023-03-23T02:50:27;7.72;;;2.10;;
61397;SDS011;47267;48.130;-2.040;2023-03-23T02:52:54;5.53;;;1.95;;
61397;SDS011;47267;48.130;-2.040;2023-03-23T02:55:23;5.63;;;1.90;;
61397;SDS011;47267;48.130;-2.040;2023-03-23T02:57:50;6.82;;;1.73;;
61397;SDS011;47267;48.130;-2.040;2023-03-23T03:00:18;6.88;;;1.70;;
61397;SDS011;47267;48.130;-2.040;2023-03-23T03:02:48;6.07;;;1.90;;
61397;SDS011;47267;48.130;-2.040;2023-03-23T03:05:28;6.32;;;2.03;;
61397;SDS011;47267;48.130;-2.040;2023-03-23T03:10:55;5.15;;;1.80;;
61397;SDS011;47267;48.130;-2.040;2023-03-23T03:16:21;5.70;;;1.60;;
61397;SDS011;47267;48.130;-2.040;2023-03-23T03:18:54;6.88;;;1.80;;
61397;SDS011;47267;48.130;-2.040;2023-03-23T03:21:34;6.93;;;1.70;;
61397;SDS011;47267;48.130;-2.040;2023-03-23T03:24:02;7.20;;;1.75;;
61397;SDS011;47267;48.130;-2.040;2023-03-23T03:26:30;6.35;;;1.67;;
61397;SDS011;47267;48.130;-2.040;2023-03-23T03:28:59;7.03;;;2.20;;
61397;SDS011;47267;48.130;-2.040;2023-03-23T03:31:28;7.43;;;1.92;;
61397;SDS011;47267;48.130;-2.040;2023-03-23T03:33:57;5.47;;;1.45;;
61397;SDS011;47267;48.130;-2.040;2023-03-23T03:36:27;5.97;;;1.67;;
61397;SDS011;47267;48.130;-2.040;2023-03-23T03:38:59;5.30;;;1.60;;
61397;SDS011;47267;48.130;-2.040;2023-03-23T03:41:32;6.53;;;1.73;;
61397;SDS011;47267;48.130;-2.040;2023-03-23T03:43:59;7.80;;;2.05;;
61397;SDS011;47267;48.130;-2.040;2023-03-23T03:46:25;6.40;;;1.77;;
61397;SDS011;47267;48.130;-2.040;2023-03-23T03:48:54;5.60;;;1.35;;
61397;SDS011;47267;48.130;-2.040;2023-03-23T03:51:23;6.82;;;1.92;;
61397;SDS011;47267;48.130;-2.040;2023-03-23T03:53:50;6.13;;;1.70;;
61397;SDS011;47267;48.130;-2.040;2023-03-23T03:56:16;8.40;;;2.10;;
61397;SDS011;47267;48.130;-2.040;2023-03-23T03:58:42;8.18;;;1.70;;
61397;SDS011;47267;48.130;-2.040;2023-03-23T04:01:08;6.20;;;1.70;;
61397;SDS011;47267;48.130;-2.040;2023-03-23T04:03:38;5.75;;;2.00;;
61397;SDS011;47267;48.130;-2.040;2023-03-23T04:06:04;6.60;;;1.98;;
61397;SDS011;47267;48.130;-2.040;2023-03-23T04:08:31;5.15;;;1.63;;
61397;SDS011;47267;48.130;-2.040;2023-03-23T04:10:57;7.60;;;2.20;;
61397;SDS011;47267;48.130;-2.040;2023-03-23T04:13:23;6.25;;;1.88;;
61397;SDS011;47267;48.130;-2.040;2023-03-23T04:15:49;8.13;;;1.90;;
61397;SDS011;47267;48.130;-2.040;2023-03-23T04:18:15;7.05;;;2.10;;
61397;SDS011;47267;48.130;-2.040;2023-03-23T04:20:46;10.13;;;2.40;;
61397;SDS011;47267;48.130;-2.040;2023-03-23T04:25:44;7.72;;;2.13;;
61397;SDS011;47267;48.130;-2.040;2023-03-23T04:28:12;5.18;;;1.58;;
61397;SDS011;47267;48.130;-2.040;2023-03-23T04:30:38;6.78;;;2.00;;
61397;SDS011;47267;48.130;-2.040;2023-03-23T04:33:08;5.95;;;1.80;;
61397;SDS011;47267;48.130;-2.040;2023-03-23T04:35:40;6.45;;;1.90;;
61397;SDS011;47267;48.130;-2.040;2023-03-23T04:38:06;10.40;;;2.42;;
61397;SDS011;47267;48.130;-2.040;2023-03-23T04:40:37;6.35;;;1.90;;
61397;SDS011;47267;48.130;-2.040;2023-03-23T04:43:04;9.13;;;2.00;;
61397;SDS011;47267;48.130;-2.040;2023-03-23T04:45:31;7.63;;;2.00;;
61397;SDS011;47267;48.130;-2.040;2023-03-23T04:47:58;7.35;;;1.95;;
61397;SDS011;47267;48.130;-2.040;2023-03-23T04:50:27;6.45;;;1.30;;
61397;SDS011;47267;48.130;-2.040;2023-03-23T04:52:56;5.32;;;1.63;;
61397;SDS011;47267;48.130;-2.040;2023-03-23T04:55:24;7.82;;;2.05;;
61397;SDS011;47267;48.130;-2.040;2023-03-23T04:57:51;6.82;;;1.83;;
61397;SDS011;47267;48.130;-2.040;2023-03-23T05:00:17;8.27;;;1.80;;
61397;SDS011;47267;48.130;-2.040;2023-03-23T05:02:46;8.05;;;1.42;;
61397;SDS011;47267;48.130;-2.040;2023-03-23T05:05:16;4.90;;;1.77;;
61397;SDS011;47267;48.130;-2.040;2023-03-23T05:07:43;9.60;;;2.25;;
61397;SDS011;47267;48.130;-2.040;2023-03-23T05:10:10;7.05;;;1.98;;
61397;SDS011;47267;48.130;-2.040;2023-03-23T05:12:37;5.97;;;1.70;;
61397;SDS011;47267;48.130;-2.040;2023-03-23T05:15:03;7.53;;;1.75;;
61397;SDS011;47267;48.130;-2.040;2023-03-23T05:17:31;5.03;;;1.40;;
61397;SDS011;47267;48.130;-2.040;2023-03-23T05:19:57;7.60;;;2.05;;
61397;SDS011;47267;48.130;-2.040;2023-03-23T05:22:23;8.23;;;2.20;;
61397;SDS011;47267;48.130;-2.040;2023-03-23T05:24:52;5.55;;;1.70;;
61397;SDS011;47267;48.130;-2.040;2023-03-23T05:27:18;6.07;;;2.10;;
61397;SDS011;47267;48.130;-2.040;2023-03-23T05:29:44;7.05;;;2.03;;
61397;SDS011;47267;48.130;-2.040;2023-03-23T05:32:13;8.90;;;2.17;;
61397;SDS011;47267;48.130;-2.040;2023-03-23T05:34:40;7.22;;;1.70;;
61397;SDS011;47267;48.130;-2.040;2023-03-23T05:37:08;7.10;;;2.05;;
61397;SDS011;47267;48.130;-2.040;2023-03-23T05:39:34;7.25;;;1.67;;
61397;SDS011;47267;48.130;-2.040;2023-03-23T05:42:01;5.80;;;2.03;;
61397;SDS011;47267;48.130;-2.040;2023-03-23T05:44:27;6.70;;;2.22;;
61397;SDS011;47267;48.130;-2.040;2023-03-23T05:46:54;5.68;;;1.70;;
61397;SDS011;47267;48.130;-2.040;2023-03-23T05:49:20;6.68;;;1.70;;
61397;SDS011;47267;48.130;-2.040;2023-03-23T05:51:46;8.00;;;2.25;;
61397;SDS011;47267;48.130;-2.040;2023-03-23T05:54:12;7.43;;;2.05;;
61397;SDS011;47267;48.130;-2.040;2023-03-23T05:56:39;6.40;;;1.70;;
61397;SDS011;47267;48.130;-2.040;2023-03-23T05:59:06;5.13;;;1.63;;
61397;SDS011;47267;48.130;-2.040;2023-03-23T06:01:31;8.38;;;2.30;;
61397;SDS011;47267;48.130;-2.040;2023-03-23T06:03:57;7.00;;;1.88;;
61397;SDS011;47267;48.130;-2.040;2023-03-23T06:06:25;6.97;;;1.83;;
61397;SDS011;47267;48.130;-2.040;2023-03-23T06:08:51;8.13;;;1.88;;
61397;SDS011;47267;48.130;-2.040;2023-03-23T06:11:17;6.88;;;2.03;;
61397;SDS011;47267;48.130;-2.040;2023-03-23T06:13:44;4.88;;;1.70;;
61397;SDS011;47267;48.130;-2.040;2023-03-23T06:16:09;7.78;;;1.98;;
61397;SDS011;47267;48.130;-2.040;2023-03-23T06:18:35;7.43;;;1.92;;
61397;SDS011;47267;48.130;-2.040;2023-03-23T06:21:04;5.45;;;2.13;;
61397;SDS011;47267;48.130;-2.040;2023-03-23T06:23:31;9.95;;;2.38;;
61397;SDS011;47267;48.130;-2.040;2023-03-23T06:25:57;7.57;;;2.20;;
61397;SDS011;47267;48.130;-2.040;2023-03-23T06:28:25;6.15;;;1.83;;
61397;SDS011;47267;48.130;-2.040;2023-03-23T06:30:51;8.27;;;2.25;;
61397;SDS011;47267;48.130;-2.040;2023-03-23T06:33:18;14.10;;;3.25;;
61397;SDS011;47267;48.130;-2.040;2023-03-23T06:35:44;15.50;;;2.80;;
61397;SDS011;47267;48.130;-2.040;2023-03-23T06:38:10;12.00;;;2.72;;
61397;SDS011;47267;48.130;-2.040;2023-03-23T06:40:37;13.38;;;3.22;;
61397;SDS011;47267;48.130;-2.040;2023-03-23T06:43:03;13.77;;;3.38;;
61397;SDS011;47267;48.130;-2.040;2023-03-23T06:45:29;12.13;;;3.15;;
61397;SDS011;47267;48.130;-2.040;2023-03-23T06:47:55;8.05;;;3.05;;
61397;SDS011;47267;48.130;-2.040;2023-03-23T06:50:21;12.82;;;2.92;;
61397;SDS011;47267;48.130;-2.040;2023-03-23T06:52:48;11.30;;;3.25;;
61397;SDS011;47267;48.130;-2.040;2023-03-23T06:55:15;14.27;;;3.00;;
61397;SDS011;47267;48.130;-2.040;2023-03-23T06:57:42;9.70;;;3.20;;
61397;SDS011;47267;48.130;-2.040;2023-03-23T07:00:09;10.98;;;3.20;;
61397;SDS011;47267;48.130;-2.040;2023-03-23T07:02:41;11.75;;;3.00;;
61397;SDS011;47267;48.130;-2.040;2023-03-23T07:05:08;10.82;;;2.47;;
61397;SDS011;47267;48.130;-2.040;2023-03-23T07:07:35;13.07;;;3.15;;
61397;SDS011;47267;48.130;-2.040;2023-03-23T07:10:02;13.07;;;3.55;;
61397;SDS011;47267;48.130;-2.040;2023-03-23T07:12:29;9.93;;;2.75;;
61397;SDS011;47267;48.130;-2.040;2023-03-23T07:14:54;10.23;;;2.88;;
61397;SDS011;47267;48.130;-2.040;2023-03-23T07:17:20;12.55;;;3.60;;
61397;SDS011;47267;48.130;-2.040;2023-03-23T07:19:46;9.68;;;2.92;;
61397;SDS011;47267;48.130;-2.040;2023-03-23T07:22:12;9.48;;;2.58;;
61397;SDS011;47267;48.130;-2.040;2023-03-23T07:24:37;13.00;;;3.30;;
61397;SDS011;47267;48.130;-2.040;2023-03-23T07:27:03;11.00;;;3.08;;
61397;SDS011;47267;48.130;-2.040;2023-03-23T07:29:29;11.90;;;3.30;;
61397;SDS011;47267;48.130;-2.040;2023-03-23T07:31:55;11.23;;;2.95;;
61397;SDS011;47267;48.130;-2.040;2023-03-23T07:34:21;10.85;;;3.10;;
61397;SDS011;47267;48.130;-2.040;2023-03-23T07:36:47;10.85;;;2.92;;
61397;SDS011;47267;48.130;-2.040;2023-03-23T07:39:13;12.32;;;3.45;;
61397;SDS011;47267;48.130;-2.040;2023-03-23T07:41:39;10.60;;;2.83;;
61397;SDS011;47267;48.130;-2.040;2023-03-23T07:44:05;9.23;;;2.88;;
61397;SDS011;47267;48.130;-2.040;2023-03-23T07:46:31;12.15;;;3.80;;
61397;SDS011;47267;48.130;-2.040;2023-03-23T07:48:57;11.55;;;3.10;;
61397;SDS011;47267;48.130;-2.040;2023-03-23T07:51:23;14.07;;;3.35;;
61397;SDS011;47267;48.130;-2.040;2023-03-23T07:53:49;9.75;;;2.80;;
61397;SDS011;47267;48.130;-2.040;2023-03-23T07:56:16;11.57;;;2.92;;
61397;SDS011;47267;48.130;-2.040;2023-03-23T07:58:44;8.60;;;3.05;;
61397;SDS011;47267;48.130;-2.040;2023-03-23T08:01:11;10.30;;;2.78;;
61397;SDS011;47267;48.130;-2.040;2023-03-23T08:03:37;10.55;;;2.92;;
61397;SDS011;47267;48.130;-2.040;2023-03-23T08:06:03;12.15;;;2.95;;
61397;SDS011;47267;48.130;-2.040;2023-03-23T08:08:30;9.55;;;2.72;;
61397;SDS011;47267;48.130;-2.040;2023-03-23T08:10:56;9.73;;;3.03;;
61397;SDS011;47267;48.130;-2.040;2023-03-23T08:13:22;11.02;;;2.90;;
61397;SDS011;47267;48.130;-2.040;2023-03-23T08:15:48;10.35;;;3.13;;
61397;SDS011;47267;48.130;-2.040;2023-03-23T08:18:14;9.55;;;2.38;;
61397;SDS011;47267;48.130;-2.040;2023-03-23T08:20:40;11.32;;;2.92;;
61397;SDS011;47267;48.130;-2.040;2023-03-23T08:23:07;11.23;;;2.85;;
61397;SDS011;47267;48.130;-2.040;2023-03-23T08:25:33;7.35;;;2.42;;
61397;SDS011;47267;48.130;-2.040;2023-03-23T08:27:59;12.40;;;3.20;;
61397;SDS011;47267;48.130;-2.040;2023-03-23T08:30:26;8.95;;;2.65;;
61397;SDS011;47267;48.130;-2.040;2023-03-23T08:32:55;11.48;;;3.30;;
61397;SDS011;47267;48.130;-2.040;2023-03-23T08:35:22;11.93;;;3.28;;
61397;SDS011;47267;48.130;-2.040;2023-03-23T08:37:48;10.95;;;2.67;;
61397;SDS011;47267;48.130;-2.040;2023-03-23T08:40:18;8.85;;;2.72;;
61397;SDS011;47267;48.130;-2.040;2023-03-23T08:42:47;10.00;;;3.08;;
61397;SDS011;47267;48.130;-2.040;2023-03-23T08:45:15;10.57;;;2.78;;
61397;SDS011;47267;48.130;-2.040;2023-03-23T08:47:44;9.05;;;3.42;;
61397;SDS011;47267;48.130;-2.040;2023-03-23T08:50:15;10.05;;;2.63;;
61397;SDS011;47267;48.130;-2.040;2023-03-23T08:52:41;10.10;;;2.72;;
61397;SDS011;47267;48.130;-2.040;2023-03-23T08:55:08;8.35;;;2.85;;
61397;SDS011;47267;48.130;-2.040;2023-03-23T08:57:35;8.65;;;2.83;;
61397;SDS011;47267;48.130;-2.040;2023-03-23T09:00:03;11.32;;;2.67;;
61397;SDS011;47267;48.130;-2.040;2023-03-23T09:02:39;8.95;;;2.60;;
61397;SDS011;47267;48.130;-2.040;2023-03-23T09:05:06;9.07;;;2.47;;
61397;SDS011;47267;48.130;-2.040;2023-03-23T09:07:32;14.27;;;3.38;;
61397;SDS011;47267;48.130;-2.040;2023-03-23T09:09:58;9.30;;;2.78;;
61397;SDS011;47267;48.130;-2.040;2023-03-23T09:12:23;7.75;;;2.72;;
61397;SDS011;47267;48.130;-2.040;2023-03-23T09:14:49;10.15;;;2.78;;
61397;SDS011;47267;48.130;-2.040;2023-03-23T09:17:15;8.68;;;2.80;;
61397;SDS011;47267;48.130;-2.040;2023-03-23T09:19:40;7.63;;;2.30;;
61397;SDS011;47267;48.130;-2.040;2023-03-23T09:22:06;8.82;;;2.53;;
61397;SDS011;47267;48.130;-2.040;2023-03-23T09:24:33;10.40;;;2.60;;
61397;SDS011;47267;48.130;-2.040;2023-03-23T09:26:59;12.00;;;2.92;;
61397;SDS011;47267;48.130;-2.040;2023-03-23T09:29:25;8.25;;;2.70;;
61397;SDS011;47267;48.130;-2.040;2023-03-23T09:31:52;9.02;;;2.63;;
61397;SDS011;47267;48.130;-2.040;2023-03-23T09:34:18;10.77;;;2.92;;
61397;SDS011;47267;48.130;-2.040;2023-03-23T09:36:44;6.38;;;2.17;;
61397;SDS011;47267;48.130;-2.040;2023-03-23T09:39:11;10.90;;;3.03;;
61397;SDS011;47267;48.130;-2.040;2023-03-23T09:42:28;10.00;;;2.88;;
61397;SDS011;47267;48.130;-2.040;2023-03-23T09:47:27;9.52;;;2.58;;
61397;SDS011;47267;48.130;-2.040;2023-03-23T09:52:37;8.43;;;3.08;;
61397;SDS011;47267;48.130;-2.040;2023-03-23T09:55:10;9.05;;;2.45;;
61397;SDS011;47267;48.130;-2.040;2023-03-23T10:00:24;9.15;;;2.75;;
61397;SDS011;47267;48.130;-2.040;2023-03-23T10:03:00;8.30;;;2.30;;
61397;SDS011;47267;48.130;-2.040;2023-03-23T10:05:44;9.27;;;2.67;;
61397;SDS011;47267;48.130;-2.040;2023-03-23T10:08:22;6.93;;;2.20;;
61397;SDS011;47267;48.130;-2.040;2023-03-23T10:16:15;8.23;;;2.60;;
61397;SDS011;47267;48.130;-2.040;2023-03-23T10:21:20;9.32;;;2.58;;
61397;SDS011;47267;48.130;-2.040;2023-03-23T10:23:59;9.57;;;2.45;;
61397;SDS011;47267;48.130;-2.040;2023-03-23T10:29:30;7.88;;;2.35;;
61397;SDS011;47267;48.130;-2.040;2023-03-23T10:32:34;7.05;;;2.10;;
61397;SDS011;47267;48.130;-2.040;2023-03-23T10:35:11;10.02;;;2.60;;
61397;SDS011;47267;48.130;-2.040;2023-03-23T10:37:44;6.82;;;2.42;;
61397;SDS011;47267;48.130;-2.040;2023-03-23T10:40:19;6.63;;;2.05;;
61397;SDS011;47267;48.130;-2.040;2023-03-23T10:42:51;8.40;;;2.28;;
61397;SDS011;47267;48.130;-2.040;2023-03-23T10:45:22;7.28;;;2.08;;
61397;SDS011;47267;48.130;-2.040;2023-03-23T10:50:36;8.48;;;2.55;;
61397;SDS011;47267;48.130;-2.040;2023-03-23T10:53:07;7.32;;;2.15;;
61397;SDS011;47267;48.130;-2.040;2023-03-23T10:55:53;5.50;;;1.83;;
61397;SDS011;47267;48.130;-2.040;2023-03-23T10:58:24;6.53;;;2.20;;
61397;SDS011;47267;48.130;-2.040;2023-03-23T11:00:54;6.28;;;2.13;;
61397;SDS011;47267;48.130;-2.040;2023-03-23T11:03:22;7.78;;;2.10;;
61397;SDS011;47267;48.130;-2.040;2023-03-23T11:05:59;6.85;;;2.10;;
61397;SDS011;47267;48.130;-2.040;2023-03-23T11:08:29;7.40;;;2.13;;
61397;SDS011;47267;48.130;-2.040;2023-03-23T11:11:14;5.95;;;2.10;;
61397;SDS011;47267;48.130;-2.040;2023-03-23T11:13:45;9.77;;;2.35;;
61397;SDS011;47267;48.130;-2.040;2023-03-23T11:18:52;5.35;;;1.88;;
61397;SDS011;47267;48.130;-2.040;2023-03-23T11:21:19;6.68;;;2.45;;
61397;SDS011;47267;48.130;-2.040;2023-03-23T11:23:52;7.05;;;1.73;;
61397;SDS011;47267;48.130;-2.040;2023-03-23T11:26:28;7.38;;;2.03;;
61397;SDS011;47267;48.130;-2.040;2023-03-23T11:29:18;7.13;;;2.17;;
61397;SDS011;47267;48.130;-2.040;2023-03-23T11:31:49;8.93;;;2.42;;
61397;SDS011;47267;48.130;-2.040;2023-03-23T11:34:33;7.95;;;2.13;;
61397;SDS011;47267;48.130;-2.040;2023-03-23T11:37:16;6.13;;;1.98;;
61397;SDS011;47267;48.130;-2.040;2023-03-23T11:42:25;6.75;;;2.30;;
61397;SDS011;47267;48.130;-2.040;2023-03-23T11:45:13;7.70;;;2.35;;
61397;SDS011;47267;48.130;-2.040;2023-03-23T11:50:47;8.50;;;2.25;;
61397;SDS011;47267;48.130;-2.040;2023-03-23T11:53:27;7.75;;;2.22;;
61397;SDS011;47267;48.130;-2.040;2023-03-23T11:58:57;10.60;;;2.03;;
61397;SDS011;47267;48.130;-2.040;2023-03-23T12:01:28;10.43;;;2.50;;
61397;SDS011;47267;48.130;-2.040;2023-03-23T12:23:08;9.80;;;2.42;;
61397;SDS011;47267;48.130;-2.040;2023-03-23T12:30:32;8.25;;;2.45;;
61397;SDS011;47267;48.130;-2.040;2023-03-23T12:52:03;9.23;;;2.53;;
61397;SDS011;47267;48.130;-2.040;2023-03-23T12:54:33;12.38;;;2.50;;
61397;SDS011;47267;48.130;-2.040;2023-03-23T13:00:14;12.50;;;3.30;;
61397;SDS011;47267;48.130;-2.040;2023-03-23T13:02:53;8.70;;;2.25;;
61397;SDS011;47267;48.130;-2.040;2023-03-23T13:05:36;10.65;;;2.95;;
61397;SDS011;47267;48.130;-2.040;2023-03-23T13:08:20;9.88;;;2.38;;
61397;SDS011;47267;48.130;-2.040;2023-03-23T13:10:52;10.18;;;2.63;;
61397;SDS011;47267;48.130;-2.040;2023-03-23T13:13:22;11.32;;;2.95;;
61397;SDS011;47267;48.130;-2.040;2023-03-23T13:18:26;11.93;;;2.90;;
61397;SDS011;47267;48.130;-2.040;2023-03-23T13:24:08;11.90;;;2.78;;
61397;SDS011;47267;48.130;-2.040;2023-03-23T13:26:41;12.85;;;3.10;;
61397;SDS011;47267;48.130;-2.040;2023-03-23T13:29:13;9.50;;;2.47;;
61397;SDS011;47267;48.130;-2.040;2023-03-23T13:31:45;9.95;;;2.88;;
61397;SDS011;47267;48.130;-2.040;2023-03-23T13:36:55;11.88;;;3.00;;
61397;SDS011;47267;48.130;-2.040;2023-03-23T13:39:34;10.88;;;2.80;;
61397;SDS011;47267;48.130;-2.040;2023-03-23T13:42:25;11.50;;;2.80;;
61397;SDS011;47267;48.130;-2.040;2023-03-23T13:45:05;11.95;;;2.80;;
61397;SDS011;47267;48.130;-2.040;2023-03-23T13:47:49;12.55;;;2.80;;
61397;SDS011;47267;48.130;-2.040;2023-03-23T13:50:28;12.13;;;3.17;;
61397;SDS011;47267;48.130;-2.040;2023-03-23T13:52:58;10.13;;;2.33;;
61397;SDS011;47267;48.130;-2.040;2023-03-23T13:55:47;9.63;;;2.60;;
61397;SDS011;47267;48.130;-2.040;2023-03-23T13:58:22;10.32;;;2.50;;
61397;SDS011;47267;48.130;-2.040;2023-03-23T14:01:00;9.38;;;2.45;;
61397;SDS011;47267;48.130;-2.040;2023-03-23T14:03:36;10.95;;;3.05;;
61397;SDS011;47267;48.130;-2.040;2023-03-23T14:06:11;11.68;;;2.55;;
61397;SDS011;47267;48.130;-2.040;2023-03-23T14:08:41;9.60;;;3.03;;
61397;SDS011;47267;48.130;-2.040;2023-03-23T14:11:22;12.05;;;2.78;;
61397;SDS011;47267;48.130;-2.040;2023-03-23T14:16:38;9.95;;;2.85;;
61397;SDS011;47267;48.130;-2.040;2023-03-23T14:19:18;15.50;;;3.13;;
61397;SDS011;47267;48.130;-2.040;2023-03-23T14:21:54;10.18;;;2.72;;
61397;SDS011;47267;48.130;-2.040;2023-03-23T14:24:22;8.88;;;2.80;;
61397;SDS011;47267;48.130;-2.040;2023-03-23T14:26:51;9.13;;;2.65;;
61397;SDS011;47267;48.130;-2.040;2023-03-23T14:29:19;11.90;;;2.88;;
61397;SDS011;47267;48.130;-2.040;2023-03-23T14:31:48;10.77;;;2.83;;
61397;SDS011;47267;48.130;-2.040;2023-03-23T14:34:19;11.32;;;2.58;;
61397;SDS011;47267;48.130;-2.040;2023-03-23T14:36:47;11.32;;;2.55;;
61397;SDS011;47267;48.130;-2.040;2023-03-23T14:41:47;11.07;;;3.03;;
61397;SDS011;47267;48.130;-2.040;2023-03-23T14:44:17;10.60;;;2.80;;
61397;SDS011;47267;48.130;-2.040;2023-03-23T14:46:47;10.68;;;2.97;;
61397;SDS011;47267;48.130;-2.040;2023-03-23T14:49:15;9.25;;;2.55;;
61397;SDS011;47267;48.130;-2.040;2023-03-23T14:51:49;8.57;;;2.35;;
61397;SDS011;47267;48.130;-2.040;2023-03-23T14:54:19;8.55;;;2.38;;
61397;SDS011;47267;48.130;-2.040;2023-03-23T14:59:13;8.20;;;2.00;;
61397;SDS011;47267;48.130;-2.040;2023-03-23T15:01:39;6.43;;;1.85;;
61397;SDS011;47267;48.130;-2.040;2023-03-23T15:06:39;8.10;;;2.30;;
61397;SDS011;47267;48.130;-2.040;2023-03-23T15:09:12;8.25;;;2.30;;
61397;SDS011;47267;48.130;-2.040;2023-03-23T15:11:43;6.63;;;2.00;;
61397;SDS011;47267;48.130;-2.040;2023-03-23T15:14:19;7.13;;;2.15;;
61397;SDS011;47267;48.130;-2.040;2023-03-23T15:16:48;8.15;;;2.50;;
61397;SDS011;47267;48.130;-2.040;2023-03-23T15:19:18;7.90;;;2.13;;
61397;SDS011;47267;48.130;-2.040;2023-03-23T15:24:27;7.55;;;1.95;;
61397;SDS011;47267;48.130;-2.040;2023-03-23T15:27:03;8.40;;;2.45;;
61397;SDS011;47267;48.130;-2.040;2023-03-23T15:29:29;8.05;;;2.38;;
61397;SDS011;47267;48.130;-2.040;2023-03-23T15:31:55;7.32;;;2.40;;
61397;SDS011;47267;48.130;-2.040;2023-03-23T15:37:04;6.88;;;2.08;;
61397;SDS011;47267;48.130;-2.040;2023-03-23T15:39:31;5.05;;;1.92;;
61397;SDS011;47267;48.130;-2.040;2023-03-23T15:41:58;6.85;;;2.00;;
61397;SDS011;47267;48.130;-2.040;2023-03-23T15:44:29;6.50;;;1.88;;
61397;SDS011;47267;48.130;-2.040;2023-03-23T15:47:02;5.35;;;2.08;;
61397;SDS011;47267;48.130;-2.040;2023-03-23T15:49:28;6.45;;;1.65;;
61397;SDS011;47267;48.130;-2.040;2023-03-23T15:51:55;4.38;;;1.40;;
61397;SDS011;47267;48.130;-2.040;2023-03-23T15:54:20;5.50;;;1.63;;
61397;SDS011;47267;48.130;-2.040;2023-03-23T15:56:46;6.95;;;1.92;;
61397;SDS011;47267;48.130;-2.040;2023-03-23T15:59:12;5.07;;;1.48;;
61397;SDS011;47267;48.130;-2.040;2023-03-23T16:01:39;3.58;;;1.20;;
61397;SDS011;47267;48.130;-2.040;2023-03-23T16:06:41;4.82;;;1.33;;
61397;SDS011;47267;48.130;-2.040;2023-03-23T16:09:10;5.47;;;1.83;;
61397;SDS011;47267;48.130;-2.040;2023-03-23T16:11:41;3.95;;;1.60;;
61397;SDS011;47267;48.130;-2.040;2023-03-23T16:14:07;3.28;;;1.23;;
61397;SDS011;47267;48.130;-2.040;2023-03-23T16:16:34;3.70;;;1.30;;
61397;SDS011;47267;48.130;-2.040;2023-03-23T16:19:03;5.15;;;1.10;;
61397;SDS011;47267;48.130;-2.040;2023-03-23T16:21:30;4.28;;;1.23;;
61397;SDS011;47267;48.130;-2.040;2023-03-23T16:23:56;2.95;;;1.27;;
61397;SDS011;47267;48.130;-2.040;2023-03-23T16:26:22;5.93;;;1.55;;
61397;SDS011;47267;48.130;-2.040;2023-03-23T16:28:48;3.63;;;1.23;;
61397;SDS011;47267;48.130;-2.040;2023-03-23T16:31:13;4.38;;;1.52;;
61397;SDS011;47267;48.130;-2.040;2023-03-23T16:33:39;4.07;;;1.25;;
61397;SDS011;47267;48.130;-2.040;2023-03-23T16:36:05;3.17;;;1.38;;
61397;SDS011;47267;48.130;-2.040;2023-03-23T16:38:31;4.45;;;1.27;;
61397;SDS011;47267;48.130;-2.040;2023-03-23T16:40:57;4.00;;;1.20;;
61397;SDS011;47267;48.130;-2.040;2023-03-23T16:43:24;4.15;;;1.40;;
61397;SDS011;47267;48.130;-2.040;2023-03-23T16:45:50;3.30;;;1.30;;
61397;SDS011;47267;48.130;-2.040;2023-03-23T16:48:20;3.08;;;1.00;;
61397;SDS011;47267;48.130;-2.040;2023-03-23T16:50:45;3.85;;;1.33;;
61397;SDS011;47267;48.130;-2.040;2023-03-23T16:53:11;2.17;;;1.08;;
61397;SDS011;47267;48.130;-2.040;2023-03-23T16:55:37;2.55;;;1.27;;